Time;durP1;ratioP1;P1;durP2;ratioP2;P2;SDS_P1;SDS_P2;PMS_P1;PMS_P2;Temp;Humidity;BMP_temperature;BMP_pressure;BME280_temperature;BME280_humidity;BME280_pressure;Samples;Min_cycle;Max_cycle;Signal;HPM_P1;HPM_P2
2022/09/01 04:19:56;;;;;;;24.92;11.35;;;;;;;14.49;100.00;100403.34;4934857;29;20040;-70
2022/09/01 04:22:23;;;;;;;20.40;9.88;;;;;;;14.45;100.00;100412.75;4934889;29;20496;-70
2022/09/01 04:24:49;;;;;;;19.20;10.02;;;;;;;14.37;100.00;100414.56;4935259;29;20044;-70
2022/09/01 04:27:16;;;;;;;22.77;10.20;;;;;;;14.33;100.00;100405.22;4936227;29;20043;-70
2022/09/01 04:29:43;;;;;;;17.60;9.15;;;;;;;14.28;100.00;100409.50;4935240;29;20053;-70
2022/09/01 04:32:11;;;;;;;17.48;9.77;;;;;;;14.31;100.00;100406.47;4919278;29;20051;-70
2022/09/01 04:34:40;;;;;;;20.40;10.20;;;;;;;14.23;100.00;100404.75;4935306;29;20413;-70
2022/09/01 04:37:16;;;;;;;18.35;9.52;;;;;;;14.33;100.00;100399.88;4934871;29;20024;-70
2022/09/01 04:39:51;;;;;;;21.90;11.10;;;;;;;14.30;100.00;100408.31;4934853;29;20523;-70
2022/09/01 04:42:19;;;;;;;20.27;10.73;;;;;;;14.27;100.00;100403.31;4934987;29;20405;-70
2022/09/01 04:44:45;;;;;;;19.13;9.98;;;;;;;14.36;100.00;100404.03;4934903;29;20028;-70
2022/09/01 04:47:15;;;;;;;21.38;9.90;;;;;;;14.36;100.00;100401.34;4934729;29;20124;-71
2022/09/01 04:49:49;;;;;;;22.17;11.15;;;;;;;14.36;100.00;100404.03;4934784;29;20040;-70
2022/09/01 04:52:16;;;;;;;20.20;11.27;;;;;;;14.37;100.00;100403.84;4934887;29;20095;-70
2022/09/01 04:54:43;;;;;;;22.20;10.85;;;;;;;14.39;100.00;100403.63;4934605;29;20044;-70
2022/09/01 04:57:09;;;;;;;18.85;9.77;;;;;;;14.40;100.00;100399.94;4934421;29;20122;-70
2022/09/01 04:59:36;;;;;;;20.33;11.10;;;;;;;14.40;100.00;100406.13;4934213;29;20035;-70
2022/09/01 05:02:01;;;;;;;19.08;10.18;;;;;;;14.40;100.00;100406.13;4934462;29;20047;-70
2022/09/01 05:04:32;;;;;;;21.45;9.98;;;;;;;14.43;100.00;100404.09;4935520;29;20528;-70
2022/09/01 05:07:00;;;;;;;19.67;10.20;;;;;;;14.35;100.00;100397.84;4934252;29;20135;-70
2022/09/01 05:09:37;;;;;;;23.08;11.13;;;;;;;14.44;100.00;100403.88;4934035;29;20042;-70
2022/09/01 05:12:15;;;;;;;18.83;9.60;;;;;;;14.44;100.00;100405.75;4935489;29;20127;-70
2022/09/01 05:14:47;;;;;;;24.63;11.68;;;;;;;14.42;100.00;100400.59;4934249;29;20039;-70
2022/09/01 05:17:16;;;;;;;21.60;11.00;;;;;;;14.47;100.00;100406.19;4918406;29;20042;-70
2022/09/01 05:19:46;;;;;;;21.92;10.43;;;;;;;14.46;100.00;100401.88;4933758;29;20114;-70
2022/09/01 05:22:14;;;;;;;21.67;10.80;;;;;;;14.46;100.00;100401.00;4934131;29;20385;-70
2022/09/01 05:24:44;;;;;;;19.02;10.90;;;;;;;14.49;100.00;100403.34;4934094;29;20114;-70
2022/09/01 05:27:11;;;;;;;19.17;10.80;;;;;;;14.50;100.00;100411.19;4933854;29;20040;-70
2022/09/01 05:29:38;;;;;;;25.25;11.57;;;;;;;14.55;100.00;100408.75;4933207;29;20048;-70
2022/09/01 05:32:08;;;;;;;22.80;10.68;;;;;;;14.59;100.00;100399.28;4918364;29;20050;-70
2022/09/01 05:34:38;;;;;;;24.80;11.77;;;;;;;14.66;100.00;100405.50;4933057;29;20028;-70
2022/09/01 05:37:07;;;;;;;22.98;10.95;;;;;;;14.69;100.00;100408.84;4949802;29;20045;-69
2022/09/01 05:39:36;;;;;;;24.95;12.52;;;;;;;14.73;100.00;100405.56;4933416;29;20461;-70
2022/09/01 05:42:04;;;;;;;23.42;11.63;;;;;;;14.77;100.00;100403.31;4933663;29;20497;-69
2022/09/01 05:44:31;;;;;;;25.55;12.82;;;;;;;14.81;100.00;100407.28;4933626;29;20044;-67
2022/09/01 05:47:01;;;;;;;28.17;13.73;;;;;;;14.89;100.00;100417.84;4933353;29;20043;-68
2022/09/01 05:49:30;;;;;;;26.60;13.07;;;;;;;14.95;100.00;100418.91;4933295;29;20043;-68
2022/09/01 05:51:57;;;;;;;;;;;;;;;15.01;100.00;100418.94;4933994;29;20067;-67
2022/09/01 05:54:26;;;;;;;27.05;12.32;;;;;;;15.06;100.00;100416.50;4933526;29;20277;-68
2022/09/01 05:56:56;;;;;;;28.42;13.13;;;;;;;15.12;100.00;100414.88;4933431;29;20094;-68
2022/09/01 05:59:26;;;;;;;24.23;11.68;;;;;;;15.18;100.00;100419.44;4933262;29;20036;-68
2022/09/01 06:02:08;;;;;;;27.05;12.00;;;;;;;15.20;100.00;100418.22;4933302;29;20043;-68
2022/09/01 06:04:37;;;;;;;24.50;12.32;;;;;;;15.25;100.00;100414.09;4949318;29;20067;-68
2022/09/01 06:07:06;;;;;;;27.67;13.07;;;;;;;15.31;100.00;100413.31;4933215;29;20063;-68
2022/09/01 06:09:32;;;;;;;28.35;11.95;;;;;;;15.34;100.00;100412.91;4933076;29;20043;-68
2022/09/01 06:11:58;;;;;;;24.75;11.65;;;;;;;15.35;100.00;100412.72;4933311;29;20032;-68
2022/09/01 06:14:24;;;;;;;24.92;11.90;;;;;;;15.36;100.00;100414.38;4949124;29;20516;-69
2022/09/01 06:16:52;;;;;;;27.40;13.33;;;;;;;15.36;100.00;100411.69;4933107;29;20253;-68
2022/09/01 06:19:19;;;;;;;22.17;11.73;;;;;;;15.42;100.00;100410.88;4948921;29;20785;-69
2022/09/01 06:21:46;;;;;;;28.92;12.55;;;;;;;15.46;100.00;100406.78;4949244;29;20075;-68
2022/09/01 06:24:12;;;;;;;26.95;12.60;;;;;;;15.56;100.00;100421.66;4933129;29;20052;-69
2022/09/01 06:26:39;;;;;;;22.52;12.30;;;;;;;15.59;100.00;100411.38;4949047;29;20044;-69
2022/09/01 06:29:09;;;;;;;24.80;12.43;;;;;;;15.67;100.00;100413.06;4932922;29;20493;-68
2022/09/01 06:31:42;;;;;;;25.83;12.63;;;;;;;15.72;100.00;100410.59;4933221;29;20043;-68
2022/09/01 06:34:17;;;;;;;22.13;11.38;;;;;;;15.78;100.00;100409.78;4933147;29;20060;-68
2022/09/01 06:36:46;;;;;;;21.95;11.27;;;;;;;15.89;100.00;100422.59;4933151;29;20038;-68
2022/09/01 06:39:18;;;;;;;23.25;11.48;;;;;;;15.97;100.00;100430.50;4932683;29;20414;-67
2022/09/01 06:41:51;;;;;;;28.70;11.55;;;;;;;15.92;100.00;100416.84;4933079;29;20135;-67
2022/09/01 06:44:23;;;;;;;22.40;11.88;;;;;;;16.11;100.00;100434.03;4933049;29;20095;-68
2022/09/01 06:46:58;;;;;;;23.20;12.35;;;;;;;16.21;100.00;100433.63;4935476;29;20568;-67
2022/09/01 06:49:31;;;;;;;30.05;11.13;;;;;;;16.26;100.00;100433.84;4936557;29;20119;-67
2022/09/01 06:52:01;;;;;;;25.52;12.23;;;;;;;16.31;100.00;100428.66;4936891;29;20042;-67
2022/09/01 06:54:30;;;;;;;22.08;10.65;;;;;;;16.42;100.00;100440.66;4936752;29;20400;-67
2022/09/01 06:56:57;;;;;;;20.63;9.55;;;;;;;16.50;100.00;100452.03;4936896;29;20362;-67
2022/09/01 06:59:28;;;;;;;;;;;;;;;16.52;100.00;100436.53;4936748;29;20584;-68
2022/09/01 07:01:55;;;;;;;25.83;11.07;;;;;;;16.59;100.00;100438.38;4936466;29;19937;-68
2022/09/01 07:04:30;;;;;;;22.00;10.40;;;;;;;16.64;100.00;100444.78;4952657;29;20044;-68
2022/09/01 07:07:05;;;;;;;24.10;11.88;;;;;;;16.70;100.00;100441.31;4921238;29;20047;-67
2022/09/01 07:09:30;;;;;;;23.23;10.73;;;;;;;16.78;100.00;100440.25;4937621;29;20051;-67
2022/09/01 07:12:13;;;;;;;18.58;9.65;;;;;;;16.81;100.00;100447.91;4936383;29;20489;-69
2022/09/01 07:14:38;;;;;;;19.38;9.95;;;;;;;16.86;100.00;100448.09;4936252;29;20054;-66
2022/09/01 07:17:05;;;;;;;20.20;11.20;;;;;;;16.94;100.00;100453.25;4936176;29;20042;-66
2022/09/01 07:19:33;;;;;;;21.00;11.32;;;;;;;17.03;100.00;100443.13;4936272;29;20445;-66
2022/09/01 07:22:00;;;;;;;20.52;9.80;;;;;;;17.10;99.80;100446.63;4936394;29;20036;-66
2022/09/01 07:24:28;;;;;;;20.85;10.05;;;;;;;17.17;99.70;100451.97;4936236;29;20046;-66
2022/09/01 07:27:13;;;;;;;19.48;10.80;;;;;;;17.24;99.87;100450.91;4919829;29;20079;-67
2022/09/01 07:29:39;;;;;;;20.00;10.10;;;;;;;17.36;100.00;100446.53;4951842;29;20082;-70
2022/09/01 07:32:05;;;;;;;18.83;9.68;;;;;;;17.41;98.71;100445.91;4937271;29;20115;-67
2022/09/01 07:34:32;;;;;;;19.52;9.80;;;;;;;17.49;98.55;100448.34;4935916;29;20047;-67
2022/09/01 07:36:59;;;;;;;18.45;10.13;;;;;;;17.55;97.41;100460.97;4935831;29;20063;-70
2022/09/01 07:39:27;;;;;;;20.25;9.57;;;;;;;17.58;96.99;100455.13;4935671;29;20040;-66
2022/09/01 07:42:17;;;;;;;18.17;9.80;;;;;;;17.62;96.82;100458.25;4936910;29;20138;-65
2022/09/01 07:45:06;;;;;;;18.70;10.37;;;;;;;17.67;96.02;100462.97;4937122;29;20058;-65
2022/09/01 07:47:48;;;;;;;20.70;11.10;;;;;;;17.68;95.07;100464.66;4936931;29;20036;-66
2022/09/01 07:50:14;;;;;;;19.45;10.20;;;;;;;17.73;94.46;100465.66;4951210;29;20107;-65
2022/09/01 07:52:42;;;;;;;17.83;9.18;;;;;;;17.78;94.48;100465.84;4936902;29;20031;-66
2022/09/01 07:55:11;;;;;;;13.57;8.60;;;;;;;17.84;94.86;100467.69;4935499;29;20435;-66
2022/09/01 07:57:41;;;;;;;15.48;8.65;;;;;;;17.89;95.20;100467.03;4934576;29;20461;-66
2022/09/01 08:00:10;;;;;;;17.35;9.23;;;;;;;18.00;94.92;100465.53;4935055;29;20032;-65
2022/09/01 08:02:38;;;;;;;18.35;8.38;;;;;;;18.10;95.20;100460.50;4937256;29;20070;-68
2022/09/01 08:05:07;;;;;;;14.98;8.10;;;;;;;18.22;92.49;100471.41;4935419;29;20134;-68
2022/09/01 08:07:37;;;;;;;15.57;8.55;;;;;;;18.27;90.37;100472.41;4935352;29;20035;-66
2022/09/01 08:10:05;;;;;;;13.70;7.57;;;;;;;18.33;89.49;100473.41;4935079;29;20468;-66
2022/09/01 08:12:35;;;;;;;13.32;7.57;;;;;;;18.38;89.12;100473.56;4935307;29;20067;-65
2022/09/01 08:15:02;;;;;;;16.67;7.57;;;;;;;18.50;90.95;100479.91;4935024;29;20069;-66
2022/09/01 08:17:28;;;;;;;13.15;7.15;;;;;;;18.56;89.96;100470.94;4934946;29;20066;-64
2022/09/01 08:19:57;;;;;;;13.23;7.50;;;;;;;18.67;90.08;100474.84;4936230;29;20454;-65
2022/09/01 08:22:41;;;;;;;13.55;7.07;;;;;;;18.85;89.41;100477.56;4936392;29;20485;-64
2022/09/01 08:25:37;;;;;;;14.60;8.68;;;;;;;18.89;88.04;100473.38;4920822;29;20639;-65
2022/09/01 08:28:04;;;;;;;13.07;7.93;;;;;;;18.98;86.84;100476.63;4934768;29;20039;-64
2022/09/01 08:30:33;;;;;;;14.40;7.00;;;;;;;19.03;85.95;100474.06;4935992;29;20055;-64
2022/09/01 08:33:00;;;;;;;12.48;7.63;;;;;;;19.07;85.58;100479.84;4919721;29;20134;-64
2022/09/01 08:35:30;;;;;;;12.30;7.07;;;;;;;19.19;86.27;100480.78;4918601;29;20036;-64
2022/09/01 08:37:57;;;;;;;11.77;6.63;;;;;;;19.23;83.04;100473.84;4935882;29;20118;-65
2022/09/01 08:40:25;;;;;;;11.02;6.35;;;;;;;19.32;83.08;100475.22;4934538;29;20071;-64
2022/09/01 08:43:03;;;;;;;10.70;6.43;;;;;;;19.43;83.36;100476.31;4934584;29;20373;-66
2022/09/01 08:45:34;;;;;;;10.85;6.00;;;;;;;19.46;82.01;100473.19;4935893;29;20043;-65
2022/09/01 08:48:16;;;;;;;13.20;6.95;;;;;;;19.49;83.45;100476.25;4934409;29;20070;-65
2022/09/01 08:50:47;;;;;;;10.00;6.20;;;;;;;19.64;83.21;100475.91;4935745;29;20036;-64
2022/09/01 08:53:31;;;;;;;11.68;7.15;;;;;;;19.75;83.24;100477.81;4934490;29;20532;-64
2022/09/01 08:55:58;;;;;;;12.32;6.63;;;;;;;19.81;80.90;100476.09;4934444;29;20054;-66
2022/09/01 08:58:26;;;;;;;10.00;5.82;;;;;;;19.92;80.65;100469.91;4935545;29;20043;-65
2022/09/01 09:01:35;;;;;;;8.52;5.88;;;;;;;20.08;78.83;100467.63;4935823;29;20058;-65
2022/09/01 09:04:24;;;;;;;11.57;5.43;;;;;;;20.20;79.76;100473.88;4935075;29;20191;-65
2022/09/01 09:07:10;;;;;;;9.75;5.60;;;;;;;20.36;77.81;100480.53;4935553;29;20046;-66
2022/09/01 09:09:43;;;;;;;9.32;6.13;;;;;;;20.49;76.93;100477.66;4935091;29;20044;-64
2022/09/01 09:12:39;;;;;;;9.77;5.68;;;;;;;20.48;77.11;100481.41;4935407;29;20039;-65
2022/09/01 09:15:10;;;;;;;8.47;5.17;;;;;;;20.74;75.78;100483.69;4935447;29;20501;-67
2022/09/01 09:17:52;;;;;;;9.60;5.47;;;;;;;20.81;73.79;100483.56;4935096;29;20054;-66
2022/09/01 09:20:17;;;;;;;8.90;4.78;;;;;;;20.78;74.42;100482.13;4934970;29;20043;-65
2022/09/01 09:22:47;;;;;;;8.75;5.53;;;;;;;20.85;73.19;100479.31;4935148;29;20405;-61
2022/09/01 09:25:17;;;;;;;8.07;4.70;;;;;;;21.05;71.84;100474.38;4934788;29;20095;-64
2022/09/01 09:27:45;;;;;;;7.50;4.80;;;;;;;21.28;70.98;100476.28;4935283;29;20046;-63
2022/09/01 09:30:25;;;;;;;7.38;3.92;;;;;;;21.55;69.61;100463.00;4935084;29;20032;-65
2022/09/01 09:32:59;;;;;;;6.60;3.83;;;;;;;21.73;67.77;100469.31;4935363;29;20157;-64
2022/09/01 09:35:38;;;;;;;5.97;4.03;;;;;;;21.91;67.76;100466.44;4935118;29;20043;-64
2022/09/01 09:38:18;;;;;;;6.35;3.70;;;;;;;22.04;66.77;100459.84;4935522;29;20047;-64
2022/09/01 09:41:07;;;;;;;4.90;3.83;;;;;;;22.32;62.39;100462.59;4935029;29;20074;-66
2022/09/01 09:43:42;;;;;;;5.38;3.42;;;;;;;22.05;62.65;100461.53;4935097;29;20059;-64
2022/09/01 09:46:34;;;;;;;5.28;3.33;;;;;;;22.53;62.06;100454.78;4935147;29;20044;-65
2022/09/01 09:49:05;;;;;;;4.65;3.03;;;;;;;22.55;61.97;100449.91;4934771;29;20097;-65
2022/09/01 09:51:31;;;;;;;6.47;3.65;;;;;;;22.61;61.51;100451.63;4934832;29;20481;-64
2022/09/01 09:54:20;;;;;;;4.82;3.00;;;;;;;22.80;59.39;100450.31;4934889;29;20241;-64
2022/09/01 09:56:47;;;;;;;5.30;3.25;;;;;;;22.88;59.47;100452.63;4934422;29;20044;-64
2022/09/01 09:59:26;;;;;;;5.32;3.03;;;;;;;23.04;58.45;100450.16;4934349;29;20039;-65
2022/09/01 10:01:57;;;;;;;4.32;2.97;;;;;;;23.22;58.46;100455.28;4934819;29;20045;-64
2022/09/01 10:04:36;;;;;;;4.03;2.90;;;;;;;23.32;57.96;100452.69;4934539;29;20111;-67
2022/09/01 10:07:22;;;;;;;3.67;2.60;;;;;;;23.77;54.64;100452.44;4934506;29;20047;-65
2022/09/01 10:09:48;;;;;;;4.30;3.03;;;;;;;24.19;55.23;100450.94;4934301;29;20035;-64
2022/09/01 10:12:14;;;;;;;4.68;2.92;;;;;;;24.44;54.68;100453.91;4934450;29;20035;-66
2022/09/01 10:14:51;;;;;;;5.00;2.90;;;;;;;24.56;53.68;100464.66;4934496;29;20043;-65
2022/09/01 10:17:22;;;;;;;5.23;2.93;;;;;;;24.28;52.85;100455.69;4934402;29;20613;-68
2022/09/01 10:19:54;;;;;;;3.95;2.65;;;;;;;24.42;54.17;100447.94;4934016;29;20111;-58
2022/09/01 10:22:22;;;;;;;3.45;2.53;;;;;;;24.53;53.56;100446.13;4934037;29;20036;-66
2022/09/01 10:24:48;;;;;;;3.65;2.95;;;;;;;24.24;53.27;100451.00;4934441;29;20042;-66
2022/09/01 10:27:26;;;;;;;3.90;2.88;;;;;;;24.41;53.53;100454.47;4934096;29;20044;-66
2022/09/01 10:29:55;;;;;;;5.80;2.78;;;;;;;24.40;53.76;100452.81;4955760;23;20046;-63
2022/09/01 10:32:28;;;;;;;3.05;2.47;;;;;;;24.54;53.95;100443.13;4934047;29;20089;-63
2022/09/01 10:34:54;;;;;;;4.10;3.08;;;;;;;24.92;55.46;100445.84;4934149;29;20039;-63
2022/09/01 10:37:21;;;;;;;3.72;2.95;;;;;;;25.33;51.10;100436.81;4934119;29;20032;-64
2022/09/01 10:40:19;;;;;;;3.05;2.38;;;;;;;25.75;49.58;100440.50;4933748;29;20048;-63
2022/09/01 10:42:54;;;;;;;4.03;2.95;;;;;;;25.98;47.84;100440.03;4919036;29;20051;-63
2022/09/01 10:45:36;;;;;;;2.85;2.30;;;;;;;26.30;48.34;100428.06;4934156;29;20130;-63
2022/09/01 10:48:19;;;;;;;4.43;2.88;;;;;;;26.88;45.48;100431.31;4933985;29;20040;-64
2022/09/01 10:50:51;;;;;;;3.50;2.60;;;;;;;27.21;44.31;100427.94;4933592;29;20050;-63
2022/09/01 10:53:34;;;;;;;4.60;2.78;;;;;;;27.34;43.93;100433.91;4934051;29;20122;-63
2022/09/01 10:56:17;;;;;;;2.92;2.35;;;;;;;28.01;43.05;100424.25;4933887;29;20480;-64
2022/09/01 10:59:23;;;;;;;3.63;2.33;;;;;;;28.30;41.52;100429.75;4933799;29;20134;-62
2022/09/01 11:01:48;;;;;;;5.72;2.83;;;;;;;28.58;41.46;100418.06;4931117;29;20083;-63
2022/09/01 11:04:17;;;;;;;3.90;2.70;;;;;;;28.31;42.05;100418.59;4933761;29;20047;-62
2022/09/01 11:07:00;;;;;;;3.30;2.30;;;;;;;28.93;40.51;100416.88;4934038;29;20039;-60
2022/09/01 11:09:34;;;;;;;3.92;2.55;;;;;;;28.65;41.34;100412.25;4933552;29;20095;-62
2022/09/01 11:12:10;;;;;;;2.72;2.10;;;;;;;28.57;41.13;100419.16;4933897;29;20078;-64
2022/09/01 11:14:47;;;;;;;3.65;2.28;;;;;;;27.84;42.02;100416.41;4933838;29;20050;-64
2022/09/01 11:17:18;;;;;;;2.70;2.30;;;;;;;27.05;43.97;100415.41;4933864;29;20039;-63
2022/09/01 11:20:09;;;;;;;2.50;2.22;;;;;;;27.03;44.11;100414.84;4933344;29;20473;-64
2022/09/01 11:22:57;;;;;;;3.08;2.38;;;;;;;27.14;45.22;100407.47;4924760;29;20142;-63
2022/09/01 11:25:32;;;;;;;3.33;2.47;;;;;;;26.90;44.41;100408.06;4933764;29;20473;-63
2022/09/01 11:28:06;;;;;;;3.90;2.90;;;;;;;27.29;44.43;100412.88;4933610;29;20528;-64
2022/09/01 11:30:36;;;;;;;4.10;2.85;;;;;;;28.04;43.47;100404.53;4933407;29;20497;-63
2022/09/01 11:33:38;;;;;;;2.92;2.40;;;;;;;28.53;41.44;100409.88;4934809;29;20046;-62
2022/09/01 11:36:10;;;;;;;3.10;2.67;;;;;;;29.00;40.09;100397.34;4937093;29;20393;-64
2022/09/01 11:39:03;;;;;;;3.97;2.35;;;;;;;28.71;40.48;100400.13;4935602;29;20042;-64
2022/09/01 11:41:47;;;;;;;3.35;2.40;;;;;;;28.79;39.70;100399.47;4936996;29;20074;-64
2022/09/01 11:44:21;;;;;;;3.10;2.40;;;;;;;28.38;40.65;100402.63;4936900;29;20078;-64
2022/09/01 11:46:46;;;;;;;2.50;2.20;;;;;;;28.89;39.08;100396.63;4935668;29;20102;-64
2022/09/01 11:49:34;;;;;;;2.35;2.05;;;;;;;29.23;37.95;100390.22;4936372;29;20474;-63
2022/09/01 11:52:02;;;;;;;4.20;2.80;;;;;;;29.53;37.14;100385.47;4937221;29;20040;-63
2022/09/01 11:54:36;;;;;;;2.35;2.08;;;;;;;29.42;36.77;100390.25;4937257;29;20125;-62
2022/09/01 11:57:17;;;;;;;2.70;2.13;;;;;;;29.36;37.04;100384.03;4936780;29;20485;-61
2022/09/01 11:59:43;;;;;;;2.70;2.10;;;;;;;29.75;36.55;100387.63;4936379;29;20050;-63
2022/09/01 12:02:16;;;;;;;3.20;2.40;;;;;;;30.23;35.63;100378.06;4937081;29;20036;-62
2022/09/01 12:04:42;;;;;;;2.38;2.00;;;;;;;30.85;35.46;100382.50;4936592;29;20039;-62
2022/09/01 12:07:13;;;;;;;2.58;2.05;;;;;;;31.34;34.16;100384.50;4936480;29;20046;-63
2022/09/01 12:09:45;;;;;;;3.35;1.95;;;;;;;31.47;33.11;100378.16;4936089;29;20119;-64
2022/09/01 12:12:25;;;;;;;2.00;1.73;;;;;;;31.31;32.66;100374.13;4936346;29;20040;-63
2022/09/01 12:14:56;;;;;;;2.60;1.92;;;;;;;31.72;31.55;100368.50;4936331;29;20124;-63
2022/09/01 12:17:22;;;;;;;1.98;1.70;;;;;;;31.32;32.50;100371.06;4936312;29;20091;-63
2022/09/01 12:19:48;;;;;;;2.00;1.70;;;;;;;29.84;35.29;100364.69;4935939;29;20027;-62
2022/09/01 12:22:17;;;;;;;2.15;1.67;;;;;;;30.35;34.57;100368.53;4935136;29;20122;-63
2022/09/01 12:24:53;;;;;;;3.00;2.03;;;;;;;30.00;34.24;100373.50;4936152;29;20169;-60
2022/09/01 12:27:22;;;;;;;3.03;2.78;;;;;;;28.42;37.10;100364.50;4936109;29;20050;-54
2022/09/01 12:29:49;;;;;;;2.60;2.10;;;;;;;27.74;39.27;100367.25;4935474;29;20449;-55
2022/09/01 12:32:16;;;;;;;2.40;2.00;;;;;;;27.81;39.12;100363.09;4936225;29;20570;-61
2022/09/01 12:34:47;;;;;;;2.58;2.35;;;;;;;28.40;39.27;100374.94;4936014;29;20067;-48
2022/09/01 12:37:15;;;;;;;2.20;2.00;;;;;;;27.76;38.62;100365.84;4936001;29;20408;-52
2022/09/01 12:39:42;;;;;;;2.47;2.03;;;;;;;28.46;38.73;100362.03;4935480;29;20047;-46
2022/09/01 12:42:23;;;;;;;2.75;1.90;;;;;;;28.76;37.53;100360.88;4935791;29;20046;-52
2022/09/01 12:44:51;;;;;;;3.25;2.20;;;;;;;28.80;37.40;100360.00;4935442;29;20087;-62
2022/09/01 12:47:32;;;;;;;2.45;2.03;;;;;;;29.36;36.40;100356.59;4935714;29;20031;-62
2022/09/01 12:50:26;;;;;;;1.95;1.75;;;;;;;29.72;35.38;100353.34;4935420;29;20036;-62
2022/09/01 12:52:54;;;;;;;2.10;1.90;;;;;;;29.97;34.69;100354.88;4935657;29;20039;-61
2022/09/01 12:55:23;;;;;;;2.20;1.80;;;;;;;30.65;34.55;100357.00;4935670;29;20523;-62
2022/09/01 12:57:54;;;;;;;2.38;1.75;;;;;;;31.30;33.88;100358.75;4935526;29;20500;-62
2022/09/01 13:00:29;;;;;;;2.00;1.80;;;;;;;31.39;32.82;100356.06;4935178;29;20079;-62
2022/09/01 13:03:01;;;;;;;2.60;1.80;;;;;;;31.03;34.08;100362.28;4935403;29;20043;-62
2022/09/01 13:05:30;;;;;;;2.00;1.70;;;;;;;30.73;33.50;100358.25;4935699;29;20032;-62
2022/09/01 13:08:05;;;;;;;2.03;1.77;;;;;;;30.86;33.13;100349.19;4935215;29;20047;-62
2022/09/01 13:10:52;;;;;;;2.13;1.92;;;;;;;31.00;34.16;100360.97;4934971;29;20568;-62
2022/09/01 13:13:19;;;;;;;2.45;1.80;;;;;;;30.95;33.97;100352.84;4934828;29;20063;-62
2022/09/01 13:15:49;;;;;;;2.20;1.75;;;;;;;31.44;32.94;100336.69;4935275;29;20508;-62
2022/09/01 13:18:16;;;;;;;2.05;1.80;;;;;;;30.76;33.29;100341.13;4935225;29;20409;-63
2022/09/01 13:20:42;;;;;;;2.03;1.58;;;;;;;30.39;33.61;100339.34;4934873;29;20118;-62
2022/09/01 13:23:08;;;;;;;1.98;1.70;;;;;;;30.88;33.15;100338.69;4935131;29;20530;-63
2022/09/01 13:25:34;;;;;;;2.13;1.53;;;;;;;30.90;34.07;100333.69;4935144;29;20040;-62
2022/09/01 13:28:01;;;;;;;2.15;1.70;;;;;;;30.71;33.79;100327.47;4935051;29;20598;-62
2022/09/01 13:30:27;;;;;;;;;;;;;;;31.52;32.51;100328.50;4935130;29;20087;-63
2022/09/01 13:32:53;;;;;;;1.90;1.70;;;;;;;31.74;32.08;100321.38;4934866;29;19921;-63
2022/09/01 13:35:20;;;;;;;1.70;1.60;;;;;;;31.85;32.89;100323.59;4933828;29;20044;-63
2022/09/01 13:37:46;;;;;;;2.03;1.58;;;;;;;32.01;32.56;100328.72;4934935;29;20064;-63
2022/09/01 13:40:15;;;;;;;1.50;1.40;;;;;;;31.58;31.21;100329.19;4934615;29;20050;-62
2022/09/01 13:42:47;;;;;;;2.13;1.40;;;;;;;32.30;32.40;100320.78;4934797;29;20341;-62
2022/09/01 13:45:15;;;;;;;1.70;1.40;;;;;;;32.25;31.23;100315.41;4935290;29;20040;-62
2022/09/01 13:47:42;;;;;;;1.65;1.55;;;;;;;32.13;31.37;100324.25;4934854;29;20040;-62
2022/09/01 13:50:09;;;;;;;1.45;1.23;;;;;;;32.13;30.72;100316.00;4934354;29;20039;-61
2022/09/01 13:52:41;;;;;;;1.40;1.30;;;;;;;31.94;31.38;100315.38;4934593;29;20051;-61
2022/09/01 13:55:09;;;;;;;1.83;1.70;;;;;;;30.53;34.04;100321.75;4934025;29;20039;-62
2022/09/01 13:57:34;;;;;;;1.70;1.40;;;;;;;30.40;34.80;100313.50;4934508;29;20039;-62
2022/09/01 14:00:00;;;;;;;1.60;1.50;;;;;;;29.35;35.04;100305.59;4934274;29;20036;-62
2022/09/01 14:02:25;;;;;;;1.37;1.20;;;;;;;29.29;34.45;100309.50;4934471;29;20387;-62
2022/09/01 14:04:51;;;;;;;1.90;1.37;;;;;;;28.90;35.01;100307.00;4934446;29;20083;-62
2022/09/01 14:07:17;;;;;;;2.17;1.50;;;;;;;28.36;37.00;100308.16;4934432;29;20031;-62
2022/09/01 14:09:44;;;;;;;1.37;1.27;;;;;;;27.90;38.28;100305.00;4934078;29;20040;-62
2022/09/01 14:12:10;;;;;;;1.40;1.25;;;;;;;27.71;39.99;100302.97;4934655;29;20661;-52
2022/09/01 14:14:36;;;;;;;2.80;2.00;;;;;;;27.67;40.22;100307.34;4934354;29;20031;-50
2022/09/01 14:17:02;;;;;;;1.65;1.52;;;;;;;26.94;40.17;100299.00;4934328;29;20396;-50
2022/09/01 14:19:28;;;;;;;2.33;1.85;;;;;;;27.15;41.16;100297.03;4934084;29;20032;-57
2022/09/01 14:21:54;;;;;;;2.17;1.67;;;;;;;26.87;39.95;100287.56;4934013;29;20039;-51
2022/09/01 14:24:19;;;;;;;2.10;1.63;;;;;;;27.01;41.33;100294.06;4934284;29;20043;-57
2022/09/01 14:26:46;;;;;;;2.00;1.65;;;;;;;26.57;41.62;100289.31;4934365;29;20071;-52
2022/09/01 14:29:11;;;;;;;2.42;1.80;;;;;;;26.80;40.88;100293.34;4932354;29;20039;-56
2022/09/01 14:31:37;;;;;;;2.63;1.63;;;;;;;26.77;40.06;100289.22;4934255;29;20058;-56
2022/09/01 14:34:04;;;;;;;1.45;1.35;;;;;;;26.48;39.61;100289.06;4934213;29;20412;-54
2022/09/01 14:36:30;;;;;;;1.48;1.38;;;;;;;26.24;40.82;100280.63;4932797;29;20050;-55
2022/09/01 14:38:55;;;;;;;1.77;1.30;;;;;;;26.25;40.91;100282.25;4933928;29;20044;-55
2022/09/01 14:41:23;;;;;;;1.58;1.40;;;;;;;26.12;41.72;100273.81;4934050;29;20426;-52
2022/09/01 14:43:51;;;;;;;2.15;1.73;;;;;;;26.11;40.40;100273.00;4934138;29;20048;-55
2022/09/01 14:46:18;;;;;;;1.80;1.60;;;;;;;25.89;41.18;100270.59;4934042;29;20075;-52
2022/09/01 14:48:45;;;;;;;2.20;1.63;;;;;;;25.77;42.69;100271.97;4933877;29;20047;-57
2022/09/01 14:51:21;;;;;;;1.90;1.52;;;;;;;25.88;42.19;100270.84;4933806;29;20032;-49
2022/09/01 14:53:47;;;;;;;2.45;1.67;;;;;;;25.85;42.33;100266.75;4934382;29;20075;-53
2022/09/01 14:56:16;;;;;;;2.25;1.60;;;;;;;25.87;42.46;100259.09;4934204;29;20071;-51
2022/09/01 14:58:44;;;;;;;1.73;1.35;;;;;;;25.86;42.41;100262.13;4934017;29;20055;-52
2022/09/01 15:01:09;;;;;;;;;;;;;;;25.91;43.46;100265.66;4934282;29;20035;-51
2022/09/01 15:03:35;;;;;;;1.88;1.50;;;;;;;25.82;42.50;100264.59;4933988;29;19918;-55
2022/09/01 15:06:00;;;;;;;2.05;1.85;;;;;;;25.80;42.33;100264.03;4934233;29;20043;-52
2022/09/01 15:08:25;;;;;;;1.50;1.30;;;;;;;25.65;43.08;100259.38;4937112;29;20040;-53
2022/09/01 15:10:51;;;;;;;1.50;1.40;;;;;;;25.62;41.81;100261.81;4937169;29;20051;-51
2022/09/01 15:13:16;;;;;;;1.75;1.48;;;;;;;25.73;42.71;100249.03;4937568;29;20081;-49
2022/09/01 15:15:42;;;;;;;2.47;1.58;;;;;;;25.64;42.20;100244.09;4937529;29;20046;-70
2022/09/01 15:18:07;;;;;;;2.13;1.85;;;;;;;25.66;42.87;100246.56;4936236;29;20090;-63
2022/09/01 15:20:44;;;;;;;2.17;1.77;;;;;;;25.55;43.59;100236.72;4936915;29;20098;-63
2022/09/01 15:23:15;;;;;;;2.08;1.60;;;;;;;25.60;43.49;100239.47;4937540;29;20095;-63
2022/09/01 15:25:41;;;;;;;2.72;2.33;;;;;;;25.55;44.20;100244.91;4937506;29;20573;-63
2022/09/01 15:28:07;;;;;;;3.47;1.90;;;;;;;25.39;44.21;100244.91;4935796;29;20382;-63
2022/09/01 15:30:34;;;;;;;2.20;2.00;;;;;;;25.20;44.55;100253.88;4936695;29;20031;-63
2022/09/01 15:33:00;;;;;;;2.28;1.90;;;;;;;25.20;44.10;100245.69;4936953;29;20031;-63
2022/09/01 15:35:27;;;;;;;2.28;1.58;;;;;;;25.24;44.36;100244.91;4937048;29;20035;-63
2022/09/01 15:37:54;;;;;;;2.10;1.70;;;;;;;25.22;43.97;100248.97;4937168;29;20024;-62
2022/09/01 15:40:19;;;;;;;1.83;1.40;;;;;;;25.20;44.12;100248.41;4935427;29;20457;-63
2022/09/01 15:42:45;;;;;;;1.73;1.63;;;;;;;25.13;44.12;100241.31;4936948;29;20029;-63
2022/09/01 15:45:15;;;;;;;2.70;1.70;;;;;;;25.14;44.63;100245.69;4936903;29;20505;-63
2022/09/01 15:47:41;;;;;;;1.65;1.55;;;;;;;25.09;44.78;100242.94;4936763;29;20031;-63
2022/09/01 15:50:09;;;;;;;1.80;1.70;;;;;;;25.03;44.47;100235.81;4936391;29;20470;-62
2022/09/01 15:52:50;;;;;;;1.88;1.58;;;;;;;24.96;44.59;100234.44;4936710;29;20035;-63
2022/09/01 15:55:18;;;;;;;2.42;1.77;;;;;;;24.97;45.28;100233.34;4935455;29;20054;-63
2022/09/01 15:57:43;;;;;;;2.28;1.52;;;;;;;24.72;45.84;100231.38;4935615;29;20508;-62